sensor_id;sensor_type;location;lat;lon;timestamp;P1;durP1;ratioP1;P2;durP2;ratioP2
14187;SDS011;7175;51.978;5.330;2023-07-08T00:01:08;21.83;;;20.23;;
14187;SDS011;7175;51.978;5.330;2023-07-08T00:03:40;21.67;;;20.07;;
14187;SDS011;7175;51.978;5.330;2023-07-08T00:06:11;21.67;;;20.07;;
14187;SDS011;7175;51.978;5.330;2023-07-08T00:08:45;21.70;;;20.10;;
14187;SDS011;7175;51.978;5.330;2023-07-08T00:11:14;21.50;;;19.90;;
14187;SDS011;7175;51.978;5.330;2023-07-08T00:13:43;21.70;;;20.10;;
14187;SDS011;7175;51.978;5.330;2023-07-08T00:16:12;21.37;;;19.77;;
14187;SDS011;7175;51.978;5.330;2023-07-08T00:18:41;21.27;;;19.67;;
14187;SDS011;7175;51.978;5.330;2023-07-08T00:21:11;21.50;;;19.90;;
14187;SDS011;7175;51.978;5.330;2023-07-08T00:23:43;21.27;;;19.67;;
14187;SDS011;7175;51.978;5.330;2023-07-08T00:26:13;21.57;;;19.97;;
14187;SDS011;7175;51.978;5.330;2023-07-08T00:28:44;21.67;;;20.07;;
14187;SDS011;7175;51.978;5.330;2023-07-08T00:31:12;21.43;;;19.83;;
14187;SDS011;7175;51.978;5.330;2023-07-08T00:33:41;21.07;;;19.47;;
14187;SDS011;7175;51.978;5.330;2023-07-08T00:36:12;21.80;;;20.10;;
14187;SDS011;7175;51.978;5.330;2023-07-08T00:38:43;21.90;;;20.20;;
14187;SDS011;7175;51.978;5.330;2023-07-08T00:41:12;22.07;;;20.37;;
14187;SDS011;7175;51.978;5.330;2023-07-08T00:43:48;22.13;;;20.43;;
14187;SDS011;7175;51.978;5.330;2023-07-08T00:46:39;22.20;;;20.50;;
14187;SDS011;7175;51.978;5.330;2023-07-08T00:49:21;21.80;;;20.10;;
14187;SDS011;7175;51.978;5.330;2023-07-08T00:51:55;21.97;;;20.27;;
14187;SDS011;7175;51.978;5.330;2023-07-08T00:54:23;21.53;;;19.83;;
14187;SDS011;7175;51.978;5.330;2023-07-08T00:56:52;21.97;;;20.27;;
14187;SDS011;7175;51.978;5.330;2023-07-08T00:59:26;21.97;;;20.27;;
14187;SDS011;7175;51.978;5.330;2023-07-08T01:01:57;22.07;;;20.37;;
14187;SDS011;7175;51.978;5.330;2023-07-08T01:04:29;21.90;;;20.20;;
14187;SDS011;7175;51.978;5.330;2023-07-08T01:07:02;21.77;;;20.07;;
14187;SDS011;7175;51.978;5.330;2023-07-08T01:09:35;21.87;;;20.27;;
14187;SDS011;7175;51.978;5.330;2023-07-08T01:12:07;21.47;;;19.87;;
14187;SDS011;7175;51.978;5.330;2023-07-08T01:14:38;21.90;;;20.30;;
14187;SDS011;7175;51.978;5.330;2023-07-08T01:17:10;21.80;;;20.17;;
14187;SDS011;7175;51.978;5.330;2023-07-08T01:19:40;21.67;;;20.03;;
14187;SDS011;7175;51.978;5.330;2023-07-08T01:22:11;22.10;;;20.40;;
14187;SDS011;7175;51.978;5.330;2023-07-08T01:24:40;22.20;;;20.50;;
14187;SDS011;7175;51.978;5.330;2023-07-08T01:27:12;22.17;;;20.53;;
14187;SDS011;7175;51.978;5.330;2023-07-08T01:29:43;22.27;;;20.57;;
14187;SDS011;7175;51.978;5.330;2023-07-08T01:32:13;21.70;;;20.10;;
14187;SDS011;7175;51.978;5.330;2023-07-08T01:34:45;21.17;;;19.57;;
14187;SDS011;7175;51.978;5.330;2023-07-08T01:37:32;22.07;;;20.37;;
14187;SDS011;7175;51.978;5.330;2023-07-08T01:42:59;21.83;;;20.17;;
14187;SDS011;7175;51.978;5.330;2023-07-08T01:45:28;22.73;;;21.03;;
14187;SDS011;7175;51.978;5.330;2023-07-08T01:48:01;22.80;;;21.10;;
14187;SDS011;7175;51.978;5.330;2023-07-08T01:50:33;22.80;;;21.10;;
14187;SDS011;7175;51.978;5.330;2023-07-08T01:53:12;22.67;;;20.97;;
14187;SDS011;7175;51.978;5.330;2023-07-08T01:55:42;22.43;;;20.73;;
14187;SDS011;7175;51.978;5.330;2023-07-08T01:58:10;22.03;;;20.33;;
14187;SDS011;7175;51.978;5.330;2023-07-08T02:00:38;22.53;;;20.83;;
14187;SDS011;7175;51.978;5.330;2023-07-08T02:03:07;22.80;;;21.10;;
14187;SDS011;7175;51.978;5.330;2023-07-08T02:05:36;23.10;;;21.40;;
14187;SDS011;7175;51.978;5.330;2023-07-08T02:08:06;23.20;;;21.50;;
14187;SDS011;7175;51.978;5.330;2023-07-08T02:10:34;23.20;;;21.50;;
14187;SDS011;7175;51.978;5.330;2023-07-08T02:13:02;23.40;;;21.70;;
14187;SDS011;7175;51.978;5.330;2023-07-08T02:15:30;23.90;;;22.10;;
14187;SDS011;7175;51.978;5.330;2023-07-08T02:17:59;22.57;;;20.87;;
14187;SDS011;7175;51.978;5.330;2023-07-08T02:20:27;23.03;;;21.23;;
14187;SDS011;7175;51.978;5.330;2023-07-08T02:22:55;22.97;;;21.17;;
14187;SDS011;7175;51.978;5.330;2023-07-08T02:25:25;23.17;;;21.37;;
14187;SDS011;7175;51.978;5.330;2023-07-08T02:27:53;23.20;;;21.40;;
14187;SDS011;7175;51.978;5.330;2023-07-08T02:30:23;23.30;;;21.50;;
14187;SDS011;7175;51.978;5.330;2023-07-08T02:32:51;23.53;;;21.73;;
14187;SDS011;7175;51.978;5.330;2023-07-08T02:35:24;23.60;;;21.80;;
14187;SDS011;7175;51.978;5.330;2023-07-08T02:37:53;23.20;;;21.40;;
14187;SDS011;7175;51.978;5.330;2023-07-08T02:40:22;22.97;;;21.17;;
14187;SDS011;7175;51.978;5.330;2023-07-08T02:42:52;22.83;;;21.13;;
14187;SDS011;7175;51.978;5.330;2023-07-08T02:45:20;23.50;;;21.70;;
14187;SDS011;7175;51.978;5.330;2023-07-08T02:47:48;23.80;;;22.00;;
14187;SDS011;7175;51.978;5.330;2023-07-08T02:50:16;23.73;;;21.93;;
14187;SDS011;7175;51.978;5.330;2023-07-08T02:52:45;23.67;;;21.87;;
14187;SDS011;7175;51.978;5.330;2023-07-08T02:55:13;23.37;;;21.60;;
14187;SDS011;7175;51.978;5.330;2023-07-08T02:57:41;23.60;;;21.90;;
14187;SDS011;7175;51.978;5.330;2023-07-08T03:00:11;23.00;;;21.30;;
14187;SDS011;7175;51.978;5.330;2023-07-08T03:02:41;22.83;;;21.13;;
14187;SDS011;7175;51.978;5.330;2023-07-08T03:05:09;22.80;;;21.10;;
14187;SDS011;7175;51.978;5.330;2023-07-08T03:07:37;23.37;;;21.67;;
14187;SDS011;7175;51.978;5.330;2023-07-08T03:10:05;23.40;;;21.70;;
14187;SDS011;7175;51.978;5.330;2023-07-08T03:12:34;24.10;;;22.30;;
14187;SDS011;7175;51.978;5.330;2023-07-08T03:15:02;23.30;;;21.60;;
14187;SDS011;7175;51.978;5.330;2023-07-08T03:17:32;22.50;;;20.80;;
14187;SDS011;7175;51.978;5.330;2023-07-08T03:20:00;21.83;;;20.23;;
14187;SDS011;7175;51.978;5.330;2023-07-08T03:22:31;22.03;;;20.43;;
14187;SDS011;7175;51.978;5.330;2023-07-08T03:24:59;21.50;;;19.90;;
14187;SDS011;7175;51.978;5.330;2023-07-08T03:27:27;21.67;;;20.07;;
14187;SDS011;7175;51.978;5.330;2023-07-08T03:29:55;21.70;;;20.10;;
14187;SDS011;7175;51.978;5.330;2023-07-08T03:32:23;21.57;;;19.97;;
14187;SDS011;7175;51.978;5.330;2023-07-08T03:34:53;21.50;;;19.90;;
14187;SDS011;7175;51.978;5.330;2023-07-08T03:37:21;21.67;;;20.07;;
14187;SDS011;7175;51.978;5.330;2023-07-08T03:39:49;21.27;;;19.67;;
14187;SDS011;7175;51.978;5.330;2023-07-08T03:42:17;22.00;;;20.37;;
14187;SDS011;7175;51.978;5.330;2023-07-08T03:44:45;22.80;;;21.10;;
14187;SDS011;7175;51.978;5.330;2023-07-08T03:47:13;22.57;;;20.87;;
14187;SDS011;7175;51.978;5.330;2023-07-08T03:49:41;22.70;;;21.00;;
14187;SDS011;7175;51.978;5.330;2023-07-08T03:52:12;22.37;;;20.67;;
14187;SDS011;7175;51.978;5.330;2023-07-08T03:54:43;21.80;;;20.20;;
14187;SDS011;7175;51.978;5.330;2023-07-08T03:57:13;21.50;;;19.90;;
14187;SDS011;7175;51.978;5.330;2023-07-08T03:59:41;21.77;;;20.07;;
14187;SDS011;7175;51.978;5.330;2023-07-08T04:02:10;21.37;;;19.77;;
14187;SDS011;7175;51.978;5.330;2023-07-08T04:04:38;21.40;;;19.70;;
14187;SDS011;7175;51.978;5.330;2023-07-08T04:07:07;21.97;;;20.27;;
14187;SDS011;7175;51.978;5.330;2023-07-08T04:09:36;22.30;;;20.50;;
14187;SDS011;7175;51.978;5.330;2023-07-08T04:12:05;22.87;;;21.03;;
14187;SDS011;7175;51.978;5.330;2023-07-08T04:14:33;22.03;;;20.27;;
14187;SDS011;7175;51.978;5.330;2023-07-08T04:17:01;22.60;;;20.80;;
14187;SDS011;7175;51.978;5.330;2023-07-08T04:19:30;22.13;;;20.33;;
14187;SDS011;7175;51.978;5.330;2023-07-08T04:22:00;22.60;;;20.80;;
14187;SDS011;7175;51.978;5.330;2023-07-08T04:24:29;22.63;;;20.83;;
14187;SDS011;7175;51.978;5.330;2023-07-08T04:26:58;22.57;;;20.77;;
14187;SDS011;7175;51.978;5.330;2023-07-08T04:29:26;23.23;;;21.33;;
14187;SDS011;7175;51.978;5.330;2023-07-08T04:31:54;23.03;;;21.20;;
14187;SDS011;7175;51.978;5.330;2023-07-08T04:34:23;22.70;;;20.90;;
14187;SDS011;7175;51.978;5.330;2023-07-08T04:36:51;22.63;;;20.83;;
14187;SDS011;7175;51.978;5.330;2023-07-08T04:39:19;22.67;;;20.87;;
14187;SDS011;7175;51.978;5.330;2023-07-08T04:41:47;22.73;;;20.93;;
14187;SDS011;7175;51.978;5.330;2023-07-08T04:44:17;22.53;;;20.73;;
14187;SDS011;7175;51.978;5.330;2023-07-08T04:46:46;22.73;;;20.93;;
14187;SDS011;7175;51.978;5.330;2023-07-08T04:49:19;22.80;;;21.00;;
14187;SDS011;7175;51.978;5.330;2023-07-08T04:51:50;22.63;;;20.83;;
14187;SDS011;7175;51.978;5.330;2023-07-08T04:54:19;22.70;;;20.90;;
14187;SDS011;7175;51.978;5.330;2023-07-08T04:56:47;22.47;;;20.67;;
14187;SDS011;7175;51.978;5.330;2023-07-08T04:59:18;22.60;;;20.80;;
14187;SDS011;7175;51.978;5.330;2023-07-08T05:01:49;22.80;;;21.00;;
14187;SDS011;7175;51.978;5.330;2023-07-08T05:04:19;22.67;;;20.87;;
14187;SDS011;7175;51.978;5.330;2023-07-08T05:06:49;22.67;;;20.87;;
14187;SDS011;7175;51.978;5.330;2023-07-08T05:09:18;22.53;;;20.73;;
14187;SDS011;7175;51.978;5.330;2023-07-08T05:11:48;22.47;;;20.67;;
14187;SDS011;7175;51.978;5.330;2023-07-08T05:14:18;22.70;;;20.90;;
14187;SDS011;7175;51.978;5.330;2023-07-08T05:16:46;22.80;;;20.90;;
14187;SDS011;7175;51.978;5.330;2023-07-08T05:19:14;22.63;;;20.80;;
14187;SDS011;7175;51.978;5.330;2023-07-08T05:21:42;22.37;;;20.57;;
14187;SDS011;7175;51.978;5.330;2023-07-08T05:24:11;22.37;;;20.57;;
14187;SDS011;7175;51.978;5.330;2023-07-08T05:26:39;23.13;;;21.23;;
14187;SDS011;7175;51.978;5.330;2023-07-08T05:29:08;23.17;;;21.27;;
14187;SDS011;7175;51.978;5.330;2023-07-08T05:31:37;23.13;;;21.23;;
14187;SDS011;7175;51.978;5.330;2023-07-08T05:34:13;22.93;;;21.03;;
14187;SDS011;7175;51.978;5.330;2023-07-08T05:36:42;22.90;;;21.00;;
14187;SDS011;7175;51.978;5.330;2023-07-08T05:39:11;22.73;;;20.83;;
14187;SDS011;7175;51.978;5.330;2023-07-08T05:41:39;22.47;;;20.63;;
14187;SDS011;7175;51.978;5.330;2023-07-08T05:44:07;22.90;;;21.00;;
14187;SDS011;7175;51.978;5.330;2023-07-08T05:46:37;22.37;;;20.47;;
14187;SDS011;7175;51.978;5.330;2023-07-08T05:49:06;22.10;;;20.20;;
14187;SDS011;7175;51.978;5.330;2023-07-08T05:51:36;22.50;;;20.60;;
14187;SDS011;7175;51.978;5.330;2023-07-08T05:54:04;22.07;;;20.17;;
14187;SDS011;7175;51.978;5.330;2023-07-08T05:56:32;21.90;;;20.00;;
14187;SDS011;7175;51.978;5.330;2023-07-08T05:59:01;21.30;;;19.50;;
14187;SDS011;7175;51.978;5.330;2023-07-08T06:01:29;21.73;;;19.93;;
14187;SDS011;7175;51.978;5.330;2023-07-08T06:03:59;21.47;;;19.67;;
14187;SDS011;7175;51.978;5.330;2023-07-08T06:06:27;21.57;;;19.77;;
14187;SDS011;7175;51.978;5.330;2023-07-08T06:08:55;21.57;;;19.77;;
14187;SDS011;7175;51.978;5.330;2023-07-08T06:11:24;21.73;;;19.93;;
14187;SDS011;7175;51.978;5.330;2023-07-08T06:13:52;22.20;;;20.40;;
14187;SDS011;7175;51.978;5.330;2023-07-08T06:16:20;22.10;;;20.30;;
14187;SDS011;7175;51.978;5.330;2023-07-08T06:18:53;21.77;;;19.97;;
14187;SDS011;7175;51.978;5.330;2023-07-08T06:21:23;21.77;;;19.97;;
14187;SDS011;7175;51.978;5.330;2023-07-08T06:23:51;21.67;;;19.97;;
14187;SDS011;7175;51.978;5.330;2023-07-08T06:26:19;21.60;;;19.90;;
14187;SDS011;7175;51.978;5.330;2023-07-08T06:28:47;21.97;;;20.27;;
14187;SDS011;7175;51.978;5.330;2023-07-08T06:31:15;21.87;;;20.17;;
14187;SDS011;7175;51.978;5.330;2023-07-08T06:33:48;22.10;;;20.37;;
14187;SDS011;7175;51.978;5.330;2023-07-08T06:36:17;22.07;;;20.30;;
14187;SDS011;7175;51.978;5.330;2023-07-08T06:38:46;21.57;;;19.87;;
14187;SDS011;7175;51.978;5.330;2023-07-08T06:41:14;22.27;;;20.47;;
14187;SDS011;7175;51.978;5.330;2023-07-08T06:43:42;22.17;;;20.47;;
14187;SDS011;7175;51.978;5.330;2023-07-08T06:46:11;22.17;;;20.47;;
14187;SDS011;7175;51.978;5.330;2023-07-08T06:48:39;21.87;;;20.17;;
14187;SDS011;7175;51.978;5.330;2023-07-08T06:51:07;22.17;;;20.47;;
14187;SDS011;7175;51.978;5.330;2023-07-08T06:53:35;21.83;;;20.13;;
14187;SDS011;7175;51.978;5.330;2023-07-08T06:56:06;21.70;;;20.00;;
14187;SDS011;7175;51.978;5.330;2023-07-08T06:58:34;21.73;;;20.03;;
14187;SDS011;7175;51.978;5.330;2023-07-08T07:01:02;21.67;;;19.97;;
14187;SDS011;7175;51.978;5.330;2023-07-08T07:03:31;21.73;;;19.97;;
14187;SDS011;7175;51.978;5.330;2023-07-08T07:05:59;21.93;;;20.13;;
14187;SDS011;7175;51.978;5.330;2023-07-08T07:08:28;21.80;;;20.07;;
14187;SDS011;7175;51.978;5.330;2023-07-08T07:10:56;21.47;;;19.77;;
14187;SDS011;7175;51.978;5.330;2023-07-08T07:13:26;21.83;;;20.07;;
14187;SDS011;7175;51.978;5.330;2023-07-08T07:15:54;21.53;;;19.83;;
14187;SDS011;7175;51.978;5.330;2023-07-08T07:18:23;21.67;;;19.97;;
14187;SDS011;7175;51.978;5.330;2023-07-08T07:20:52;21.97;;;20.17;;
14187;SDS011;7175;51.978;5.330;2023-07-08T07:23:21;22.00;;;20.20;;
14187;SDS011;7175;51.978;5.330;2023-07-08T07:25:50;22.20;;;20.40;;
14187;SDS011;7175;51.978;5.330;2023-07-08T07:28:18;21.83;;;20.03;;
14187;SDS011;7175;51.978;5.330;2023-07-08T07:30:54;21.67;;;19.97;;
14187;SDS011;7175;51.978;5.330;2023-07-08T07:33:24;21.63;;;19.93;;
14187;SDS011;7175;51.978;5.330;2023-07-08T07:35:52;21.90;;;20.20;;
14187;SDS011;7175;51.978;5.330;2023-07-08T07:38:20;21.77;;;19.97;;
14187;SDS011;7175;51.978;5.330;2023-07-08T07:40:52;21.93;;;20.13;;
14187;SDS011;7175;51.978;5.330;2023-07-08T07:43:20;21.90;;;20.10;;
14187;SDS011;7175;51.978;5.330;2023-07-08T07:45:50;21.90;;;20.10;;
14187;SDS011;7175;51.978;5.330;2023-07-08T07:48:19;21.23;;;19.43;;
14187;SDS011;7175;51.978;5.330;2023-07-08T07:50:48;21.13;;;19.33;;
14187;SDS011;7175;51.978;5.330;2023-07-08T07:53:17;21.40;;;19.60;;
14187;SDS011;7175;51.978;5.330;2023-07-08T07:55:46;21.20;;;19.40;;
14187;SDS011;7175;51.978;5.330;2023-07-08T07:58:14;21.30;;;19.50;;
14187;SDS011;7175;51.978;5.330;2023-07-08T08:00:42;21.33;;;19.53;;
14187;SDS011;7175;51.978;5.330;2023-07-08T08:03:11;21.13;;;19.33;;
14187;SDS011;7175;51.978;5.330;2023-07-08T08:05:39;21.20;;;19.40;;
14187;SDS011;7175;51.978;5.330;2023-07-08T08:08:07;21.30;;;19.50;;
14187;SDS011;7175;51.978;5.330;2023-07-08T08:10:36;21.30;;;19.50;;
14187;SDS011;7175;51.978;5.330;2023-07-08T08:13:04;21.23;;;19.43;;
14187;SDS011;7175;51.978;5.330;2023-07-08T08:15:32;21.30;;;19.50;;
14187;SDS011;7175;51.978;5.330;2023-07-08T08:18:00;21.47;;;19.67;;
14187;SDS011;7175;51.978;5.330;2023-07-08T08:20:29;21.10;;;19.30;;
14187;SDS011;7175;51.978;5.330;2023-07-08T08:22:57;21.10;;;19.40;;
14187;SDS011;7175;51.978;5.330;2023-07-08T08:25:25;21.03;;;19.33;;
14187;SDS011;7175;51.978;5.330;2023-07-08T08:27:53;20.80;;;19.10;;
14187;SDS011;7175;51.978;5.330;2023-07-08T08:30:21;20.77;;;19.07;;
14187;SDS011;7175;51.978;5.330;2023-07-08T08:32:49;20.93;;;19.23;;
14187;SDS011;7175;51.978;5.330;2023-07-08T08:35:17;20.93;;;19.23;;
14187;SDS011;7175;51.978;5.330;2023-07-08T08:37:46;20.67;;;18.97;;
14187;SDS011;7175;51.978;5.330;2023-07-08T08:40:15;21.23;;;19.53;;
14187;SDS011;7175;51.978;5.330;2023-07-08T08:42:50;20.67;;;18.97;;
14187;SDS011;7175;51.978;5.330;2023-07-08T08:45:20;21.07;;;19.37;;
14187;SDS011;7175;51.978;5.330;2023-07-08T08:47:52;20.73;;;19.03;;
14187;SDS011;7175;51.978;5.330;2023-07-08T08:50:31;20.73;;;19.03;;
14187;SDS011;7175;51.978;5.330;2023-07-08T08:53:04;21.07;;;19.27;;
14187;SDS011;7175;51.978;5.330;2023-07-08T08:55:36;20.63;;;18.93;;
14187;SDS011;7175;51.978;5.330;2023-07-08T08:58:09;20.70;;;19.00;;
14187;SDS011;7175;51.978;5.330;2023-07-08T09:00:47;20.70;;;19.00;;
14187;SDS011;7175;51.978;5.330;2023-07-08T09:03:27;19.63;;;18.03;;
14187;SDS011;7175;51.978;5.330;2023-07-08T09:06:08;20.17;;;18.57;;
14187;SDS011;7175;51.978;5.330;2023-07-08T09:08:40;20.40;;;18.70;;
14187;SDS011;7175;51.978;5.330;2023-07-08T09:11:11;20.33;;;18.63;;
14187;SDS011;7175;51.978;5.330;2023-07-08T09:14:00;20.27;;;18.57;;
14187;SDS011;7175;51.978;5.330;2023-07-08T09:16:31;20.27;;;18.57;;
14187;SDS011;7175;51.978;5.330;2023-07-08T09:19:09;19.77;;;18.17;;
14187;SDS011;7175;51.978;5.330;2023-07-08T09:21:41;19.50;;;17.90;;
14187;SDS011;7175;51.978;5.330;2023-07-08T09:24:17;19.43;;;17.83;;
14187;SDS011;7175;51.978;5.330;2023-07-08T09:26:50;19.47;;;17.87;;
14187;SDS011;7175;51.978;5.330;2023-07-08T09:29:20;19.30;;;17.70;;
14187;SDS011;7175;51.978;5.330;2023-07-08T09:31:52;19.47;;;17.87;;
14187;SDS011;7175;51.978;5.330;2023-07-08T09:34:23;19.60;;;18.00;;
14187;SDS011;7175;51.978;5.330;2023-07-08T09:37:04;19.70;;;18.10;;
14187;SDS011;7175;51.978;5.330;2023-07-08T09:39:50;19.73;;;18.13;;
14187;SDS011;7175;51.978;5.330;2023-07-08T09:42:19;20.00;;;18.40;;
14187;SDS011;7175;51.978;5.330;2023-07-08T09:44:48;20.10;;;18.50;;
14187;SDS011;7175;51.978;5.330;2023-07-08T09:47:22;20.00;;;18.40;;
14187;SDS011;7175;51.978;5.330;2023-07-08T09:49:51;19.50;;;17.90;;
14187;SDS011;7175;51.978;5.330;2023-07-08T09:52:20;19.70;;;18.10;;
14187;SDS011;7175;51.978;5.330;2023-07-08T09:54:50;19.60;;;18.00;;
14187;SDS011;7175;51.978;5.330;2023-07-08T09:57:21;19.53;;;17.93;;
14187;SDS011;7175;51.978;5.330;2023-07-08T09:59:55;19.90;;;18.30;;
14187;SDS011;7175;51.978;5.330;2023-07-08T10:02:29;19.40;;;17.80;;
14187;SDS011;7175;51.978;5.330;2023-07-08T10:05:00;19.37;;;17.77;;
14187;SDS011;7175;51.978;5.330;2023-07-08T10:07:30;19.63;;;18.03;;
14187;SDS011;7175;51.978;5.330;2023-07-08T10:10:06;19.47;;;17.87;;
14187;SDS011;7175;51.978;5.330;2023-07-08T10:12:41;19.73;;;18.13;;
14187;SDS011;7175;51.978;5.330;2023-07-08T10:15:15;19.90;;;18.30;;
14187;SDS011;7175;51.978;5.330;2023-07-08T10:17:48;19.43;;;17.83;;
14187;SDS011;7175;51.978;5.330;2023-07-08T10:20:16;19.63;;;18.03;;
14187;SDS011;7175;51.978;5.330;2023-07-08T10:22:47;19.43;;;17.83;;
14187;SDS011;7175;51.978;5.330;2023-07-08T10:25:32;19.80;;;18.20;;
14187;SDS011;7175;51.978;5.330;2023-07-08T10:28:23;19.67;;;18.07;;
14187;SDS011;7175;51.978;5.330;2023-07-08T10:30:58;19.50;;;17.90;;
14187;SDS011;7175;51.978;5.330;2023-07-08T10:33:59;19.70;;;18.10;;
14187;SDS011;7175;51.978;5.330;2023-07-08T10:36:50;19.77;;;18.17;;
14187;SDS011;7175;51.978;5.330;2023-07-08T10:39:34;19.77;;;18.17;;
14187;SDS011;7175;51.978;5.330;2023-07-08T10:42:24;20.23;;;18.60;;
14187;SDS011;7175;51.978;5.330;2023-07-08T10:45:05;20.27;;;18.57;;
14187;SDS011;7175;51.978;5.330;2023-07-08T10:47:42;20.07;;;18.47;;
14187;SDS011;7175;51.978;5.330;2023-07-08T10:53:36;19.90;;;18.30;;
14187;SDS011;7175;51.978;5.330;2023-07-08T10:56:14;20.20;;;18.50;;
14187;SDS011;7175;51.978;5.330;2023-07-08T10:59:02;19.70;;;18.10;;
14187;SDS011;7175;51.978;5.330;2023-07-08T11:01:51;19.70;;;18.10;;
14187;SDS011;7175;51.978;5.330;2023-07-08T11:04:45;19.60;;;18.00;;
14187;SDS011;7175;51.978;5.330;2023-07-08T11:07:26;19.77;;;18.17;;
14187;SDS011;7175;51.978;5.330;2023-07-08T11:10:00;19.77;;;18.17;;
14187;SDS011;7175;51.978;5.330;2023-07-08T11:12:34;19.67;;;18.07;;
14187;SDS011;7175;51.978;5.330;2023-07-08T11:15:12;19.47;;;17.87;;
14187;SDS011;7175;51.978;5.330;2023-07-08T11:17:49;19.33;;;17.73;;
14187;SDS011;7175;51.978;5.330;2023-07-08T11:20:24;19.87;;;18.27;;
14187;SDS011;7175;51.978;5.330;2023-07-08T11:23:04;19.53;;;17.93;;
14187;SDS011;7175;51.978;5.330;2023-07-08T11:25:36;19.20;;;17.60;;
14187;SDS011;7175;51.978;5.330;2023-07-08T11:28:06;19.17;;;17.57;;
14187;SDS011;7175;51.978;5.330;2023-07-08T11:30:43;18.97;;;17.37;;
14187;SDS011;7175;51.978;5.330;2023-07-08T11:33:15;19.17;;;17.57;;
14187;SDS011;7175;51.978;5.330;2023-07-08T11:35:47;19.33;;;17.73;;
14187;SDS011;7175;51.978;5.330;2023-07-08T11:38:19;19.47;;;17.87;;
14187;SDS011;7175;51.978;5.330;2023-07-08T11:40:49;19.47;;;17.87;;
14187;SDS011;7175;51.978;5.330;2023-07-08T11:43:19;19.57;;;17.97;;
14187;SDS011;7175;51.978;5.330;2023-07-08T11:45:50;19.50;;;17.90;;
14187;SDS011;7175;51.978;5.330;2023-07-08T11:48:23;19.57;;;17.97;;
14187;SDS011;7175;51.978;5.330;2023-07-08T11:50:54;19.73;;;18.13;;
14187;SDS011;7175;51.978;5.330;2023-07-08T11:53:31;19.93;;;18.23;;
14187;SDS011;7175;51.978;5.330;2023-07-08T11:56:05;20.03;;;18.33;;
14187;SDS011;7175;51.978;5.330;2023-07-08T11:58:51;20.07;;;18.37;;
14187;SDS011;7175;51.978;5.330;2023-07-08T12:01:39;20.10;;;18.40;;
14187;SDS011;7175;51.978;5.330;2023-07-08T12:04:17;20.27;;;18.57;;
14187;SDS011;7175;51.978;5.330;2023-07-08T12:07:01;20.13;;;18.43;;
14187;SDS011;7175;51.978;5.330;2023-07-08T12:09:37;20.07;;;18.37;;
14187;SDS011;7175;51.978;5.330;2023-07-08T12:12:14;20.10;;;18.40;;
14187;SDS011;7175;51.978;5.330;2023-07-08T12:14:48;20.20;;;18.50;;
14187;SDS011;7175;51.978;5.330;2023-07-08T12:17:19;19.93;;;18.23;;
14187;SDS011;7175;51.978;5.330;2023-07-08T12:19:47;20.20;;;18.40;;
14187;SDS011;7175;51.978;5.330;2023-07-08T12:22:18;20.23;;;18.53;;
14187;SDS011;7175;51.978;5.330;2023-07-08T12:24:47;20.10;;;18.40;;
14187;SDS011;7175;51.978;5.330;2023-07-08T12:27:16;20.07;;;18.37;;
14187;SDS011;7175;51.978;5.330;2023-07-08T12:29:45;19.90;;;18.20;;
14187;SDS011;7175;51.978;5.330;2023-07-08T12:32:14;20.17;;;18.47;;
14187;SDS011;7175;51.978;5.330;2023-07-08T12:34:44;20.00;;;18.30;;
14187;SDS011;7175;51.978;5.330;2023-07-08T12:37:12;20.30;;;18.60;;
14187;SDS011;7175;51.978;5.330;2023-07-08T12:39:41;20.03;;;18.33;;
14187;SDS011;7175;51.978;5.330;2023-07-08T12:42:10;20.27;;;18.57;;
14187;SDS011;7175;51.978;5.330;2023-07-08T12:44:38;20.17;;;18.47;;
14187;SDS011;7175;51.978;5.330;2023-07-08T12:47:08;20.10;;;18.40;;
14187;SDS011;7175;51.978;5.330;2023-07-08T12:49:36;20.07;;;18.37;;
14187;SDS011;7175;51.978;5.330;2023-07-08T12:52:17;19.97;;;18.27;;
14187;SDS011;7175;51.978;5.330;2023-07-08T12:54:49;20.10;;;18.40;;
14187;SDS011;7175;51.978;5.330;2023-07-08T12:57:17;19.73;;;18.03;;
14187;SDS011;7175;51.978;5.330;2023-07-08T12:59:46;19.90;;;18.20;;
14187;SDS011;7175;51.978;5.330;2023-07-08T13:02:15;19.70;;;18.00;;
14187;SDS011;7175;51.978;5.330;2023-07-08T13:04:46;19.77;;;18.07;;
14187;SDS011;7175;51.978;5.330;2023-07-08T13:07:22;19.77;;;18.07;;
14187;SDS011;7175;51.978;5.330;2023-07-08T13:09:57;19.73;;;18.03;;
14187;SDS011;7175;51.978;5.330;2023-07-08T13:12:26;19.57;;;17.87;;
14187;SDS011;7175;51.978;5.330;2023-07-08T13:14:55;19.37;;;17.67;;
14187;SDS011;7175;51.978;5.330;2023-07-08T13:17:26;19.40;;;17.70;;
14187;SDS011;7175;51.978;5.330;2023-07-08T13:19:54;19.23;;;17.60;;
14187;SDS011;7175;51.978;5.330;2023-07-08T13:22:25;19.50;;;17.80;;
14187;SDS011;7175;51.978;5.330;2023-07-08T13:24:59;19.90;;;18.20;;
14187;SDS011;7175;51.978;5.330;2023-07-08T13:27:29;19.87;;;18.17;;
14187;SDS011;7175;51.978;5.330;2023-07-08T13:30:13;19.33;;;17.73;;
14187;SDS011;7175;51.978;5.330;2023-07-08T13:32:48;19.63;;;17.93;;
14187;SDS011;7175;51.978;5.330;2023-07-08T13:35:25;20.03;;;18.33;;
14187;SDS011;7175;51.978;5.330;2023-07-08T13:37:57;20.10;;;18.40;;
14187;SDS011;7175;51.978;5.330;2023-07-08T13:40:26;19.93;;;18.23;;
14187;SDS011;7175;51.978;5.330;2023-07-08T13:42:55;20.00;;;18.30;;
14187;SDS011;7175;51.978;5.330;2023-07-08T13:45:23;20.27;;;18.57;;
14187;SDS011;7175;51.978;5.330;2023-07-08T13:48:00;19.60;;;17.90;;
14187;SDS011;7175;51.978;5.330;2023-07-08T13:50:36;20.23;;;18.53;;
14187;SDS011;7175;51.978;5.330;2023-07-08T13:53:17;20.07;;;18.37;;
14187;SDS011;7175;51.978;5.330;2023-07-08T13:55:48;19.90;;;18.20;;
14187;SDS011;7175;51.978;5.330;2023-07-08T13:58:25;19.97;;;18.27;;
14187;SDS011;7175;51.978;5.330;2023-07-08T14:00:55;19.90;;;18.20;;
14187;SDS011;7175;51.978;5.330;2023-07-08T14:03:24;19.90;;;18.20;;
14187;SDS011;7175;51.978;5.330;2023-07-08T14:05:53;20.10;;;18.40;;
14187;SDS011;7175;51.978;5.330;2023-07-08T14:08:22;20.20;;;18.50;;
14187;SDS011;7175;51.978;5.330;2023-07-08T14:10:50;20.57;;;18.87;;
14187;SDS011;7175;51.978;5.330;2023-07-08T14:13:18;20.40;;;18.70;;
14187;SDS011;7175;51.978;5.330;2023-07-08T14:15:47;20.23;;;18.53;;
14187;SDS011;7175;51.978;5.330;2023-07-08T14:18:15;20.13;;;18.43;;
14187;SDS011;7175;51.978;5.330;2023-07-08T14:20:43;20.37;;;18.67;;
14187;SDS011;7175;51.978;5.330;2023-07-08T14:23:11;20.30;;;18.60;;
14187;SDS011;7175;51.978;5.330;2023-07-08T14:25:40;20.47;;;18.73;;
14187;SDS011;7175;51.978;5.330;2023-07-08T14:28:08;20.50;;;18.77;;
14187;SDS011;7175;51.978;5.330;2023-07-08T14:30:39;20.07;;;18.37;;
14187;SDS011;7175;51.978;5.330;2023-07-08T14:33:12;20.10;;;18.40;;
14187;SDS011;7175;51.978;5.330;2023-07-08T14:35:41;20.40;;;18.70;;
14187;SDS011;7175;51.978;5.330;2023-07-08T14:38:10;20.17;;;18.47;;
14187;SDS011;7175;51.978;5.330;2023-07-08T14:40:41;20.37;;;18.67;;
14187;SDS011;7175;51.978;5.330;2023-07-08T14:43:15;20.37;;;18.67;;
14187;SDS011;7175;51.978;5.330;2023-07-08T14:45:46;20.23;;;18.53;;
14187;SDS011;7175;51.978;5.330;2023-07-08T14:48:16;20.00;;;18.30;;
14187;SDS011;7175;51.978;5.330;2023-07-08T14:50:44;19.90;;;18.20;;
14187;SDS011;7175;51.978;5.330;2023-07-08T14:53:13;19.87;;;18.17;;
14187;SDS011;7175;51.978;5.330;2023-07-08T14:55:44;19.90;;;18.20;;
14187;SDS011;7175;51.978;5.330;2023-07-08T14:58:19;19.63;;;17.93;;
14187;SDS011;7175;51.978;5.330;2023-07-08T15:00:50;19.77;;;18.07;;
14187;SDS011;7175;51.978;5.330;2023-07-08T15:03:19;19.67;;;17.97;;